Old Saybrook, Connecticut
Current Conditions -  °F | °C
As of 6:55 AM on Friday 24 Oct 2014 (Local Time) from KSNC Reporting Station
Light Rain Light Rain  
Wind Chill: 44°   Ceiling: 3500
Heat Index: 48°   Visibility: 9mi
Dew Point: 45°   Wind: 9mph
Humidity: 87%   Direction: 330°NNW
Pressure: 29.75"   Gusts: NA
Location:  41.29°N, 72.38°W
Report Text: KSNC 241055Z AUTO 33008KT 9SM -RA BKN035 OVC075 09/07 A2975 RMK AO2
Loading
Personal Weather Stations






























Interactive Weather Map
Tropical Storm Tracking
New forecast layout! Learn more

10-Day Weather Forecast

Advertisements
Track Severe Weather on mobile